createdAt,value
2016-10-08T00:00:33.710Z,0
2016-10-08T00:01:33.722Z,0
2016-10-08T00:02:33.751Z,0
2016-10-08T00:03:33.755Z,0
2016-10-08T00:04:33.761Z,0
2016-10-08T00:05:33.779Z,0
2016-10-08T00:06:33.782Z,0
2016-10-08T00:07:33.792Z,0
2016-10-08T00:08:33.783Z,0
2016-10-08T00:09:33.885Z,0
2016-10-08T00:10:33.821Z,0
2016-10-08T00:11:34.161Z,0
2016-10-08T00:12:33.859Z,0
2016-10-08T00:13:33.868Z,0
2016-10-08T00:14:33.892Z,0
2016-10-08T00:15:33.902Z,0
2016-10-08T00:16:33.917Z,0
2016-10-08T00:17:33.931Z,0
2016-10-08T00:18:33.951Z,0
2016-10-08T00:19:33.973Z,0
2016-10-08T00:20:33.987Z,0
2016-10-08T00:21:34.020Z,0
2016-10-08T00:22:34.027Z,0
2016-10-08T00:23:34.053Z,0
2016-10-08T00:24:34.060Z,0
2016-10-08T00:25:34.082Z,0
2016-10-08T00:26:34.099Z,0
2016-10-08T00:27:34.130Z,0
2016-10-08T00:28:34.140Z,0
2016-10-08T00:29:34.152Z,0
2016-10-08T00:30:34.187Z,0
2016-10-08T00:31:34.195Z,0
2016-10-08T00:32:34.208Z,0
2016-10-08T00:33:34.241Z,0
2016-10-08T00:34:34.243Z,0
2016-10-08T00:35:34.276Z,0
2016-10-08T00:36:34.285Z,0
2016-10-08T00:37:34.305Z,0
2016-10-08T00:38:34.322Z,0
2016-10-08T00:39:34.355Z,0
2016-10-08T00:40:34.368Z,0
2016-10-08T00:41:34.382Z,0
2016-10-08T00:42:34.757Z,0
2016-10-08T00:43:34.780Z,0
2016-10-08T00:44:34.429Z,0
2016-10-08T00:45:34.456Z,0
2016-10-08T00:46:34.466Z,0
2016-10-08T00:47:34.486Z,0
2016-10-08T00:48:34.506Z,0
2016-10-08T00:49:34.521Z,0
2016-10-08T00:50:34.543Z,0
2016-10-08T00:51:34.577Z,0
2016-10-08T00:52:34.921Z,0
2016-10-08T00:53:34.596Z,0
2016-10-08T00:54:34.618Z,0
2016-10-08T00:55:34.642Z,0
2016-10-08T00:56:34.659Z,0
2016-10-08T00:57:34.669Z,0
2016-10-08T00:58:34.691Z,0
2016-10-08T00:59:34.700Z,0
2016-10-08T01:00:34.723Z,0
2016-10-08T01:01:35.090Z,0
2016-10-08T01:02:34.760Z,0
2016-10-08T01:03:34.774Z,0
2016-10-08T01:04:34.799Z,0
2016-10-08T01:05:34.811Z,0
2016-10-08T01:06:34.837Z,0
2016-10-08T01:07:34.852Z,0
2016-10-08T01:08:34.867Z,0
2016-10-08T01:09:34.893Z,0
2016-10-08T01:10:34.905Z,0
2016-10-08T01:11:34.924Z,0
2016-10-08T01:12:34.935Z,0
2016-10-08T01:13:34.962Z,0
2016-10-08T01:14:34.977Z,0
2016-10-08T01:15:35.009Z,0
2016-10-08T01:16:35.012Z,0
2016-10-08T01:17:35.038Z,0
2016-10-08T01:18:35.053Z,0
2016-10-08T01:19:35.068Z,0
2016-10-08T01:20:35.083Z,0
2016-10-08T01:21:35.102Z,0
2016-10-08T01:22:35.131Z,0
2016-10-08T01:23:35.143Z,0
2016-10-08T01:24:35.165Z,0
2016-10-08T01:25:35.177Z,0
2016-10-08T01:26:35.195Z,0
2016-10-08T01:27:35.211Z,0
2016-10-08T01:28:35.352Z,0
2016-10-08T01:29:35.354Z,0
2016-10-08T01:30:35.365Z,0
2016-10-08T01:31:35.374Z,0
2016-10-08T01:32:35.394Z,0
2016-10-08T01:33:35.412Z,0
2016-10-08T01:34:35.431Z,0
2016-10-08T01:35:35.442Z,0
2016-10-08T01:36:35.510Z,0
2016-10-08T01:37:35.517Z,0
2016-10-08T01:38:35.516Z,0
2016-10-08T01:39:35.525Z,0
2016-10-08T01:40:35.534Z,0
2016-10-08T01:41:35.678Z,0
2016-10-08T01:42:35.689Z,0
2016-10-08T01:43:35.691Z,0
2016-10-08T01:44:35.704Z,0
2016-10-08T01:45:35.707Z,0
2016-10-08T01:46:35.717Z,0
2016-10-08T01:47:35.725Z,0
2016-10-08T01:48:35.734Z,0
2016-10-08T01:49:35.702Z,0
2016-10-08T01:50:35.712Z,0
2016-10-08T01:51:35.716Z,0
2016-10-08T01:52:35.723Z,0
2016-10-08T01:53:35.732Z,0
2016-10-08T01:54:35.735Z,0
2016-10-08T01:55:35.805Z,0
2016-10-08T01:56:35.750Z,0
2016-10-08T01:57:35.760Z,0
2016-10-08T01:58:35.775Z,0
2016-10-08T01:59:35.789Z,0
2016-10-08T02:00:35.817Z,0
2016-10-08T02:01:35.824Z,0
2016-10-08T02:02:35.859Z,0
2016-10-08T02:03:35.859Z,0
2016-10-08T02:04:35.877Z,0
2016-10-08T02:05:35.891Z,0
2016-10-08T02:06:35.920Z,0
2016-10-08T02:07:35.944Z,0
2016-10-08T02:08:35.947Z,0
2016-10-08T02:09:35.973Z,0
2016-10-08T02:10:35.985Z,0
2016-10-08T02:11:36.002Z,0
2016-10-08T02:12:36.018Z,0
2016-10-08T02:13:36.037Z,0
2016-10-08T02:14:36.058Z,0
2016-10-08T02:15:36.078Z,0
2016-10-08T02:16:36.100Z,0
2016-10-08T02:17:36.114Z,0
2016-10-08T02:18:36.124Z,0
2016-10-08T02:19:36.144Z,0
2016-10-08T02:20:36.162Z,0
2016-10-08T02:21:36.179Z,0
2016-10-08T02:22:36.197Z,0
2016-10-08T02:23:36.213Z,0
2016-10-08T02:24:36.237Z,0
2016-10-08T02:25:36.260Z,0
2016-10-08T02:26:36.267Z,0
2016-10-08T02:27:36.290Z,0
2016-10-08T02:28:36.304Z,0
2016-10-08T02:29:36.323Z,0
2016-10-08T02:30:36.339Z,0
2016-10-08T02:31:36.358Z,0
2016-10-08T02:32:36.375Z,0
2016-10-08T02:33:36.394Z,0
2016-10-08T02:34:36.410Z,0
2016-10-08T02:35:36.470Z,0
2016-10-08T02:36:36.449Z,0
2016-10-08T02:37:36.461Z,0
2016-10-08T02:38:36.483Z,0
2016-10-08T02:39:36.498Z,0
2016-10-08T02:40:36.516Z,0
2016-10-08T02:41:36.537Z,0
2016-10-08T02:42:36.548Z,0
2016-10-08T02:43:36.569Z,0
2016-10-08T02:44:36.588Z,0
2016-10-08T02:45:36.614Z,0
2016-10-08T02:46:36.621Z,0
2016-10-08T02:47:36.644Z,0
2016-10-08T02:48:36.654Z,0
2016-10-08T02:49:36.682Z,0
2016-10-08T02:50:36.698Z,0
2016-10-08T02:51:36.712Z,0
2016-10-08T02:52:36.727Z,0
2016-10-08T02:53:36.751Z,0
2016-10-08T02:54:36.770Z,0
2016-10-08T02:55:36.783Z,0
2016-10-08T02:56:36.799Z,0
2016-10-08T02:57:36.837Z,0
2016-10-08T02:58:36.847Z,0
2016-10-08T02:59:36.886Z,0
2016-10-08T03:00:36.870Z,0
2016-10-08T03:01:36.913Z,0
2016-10-08T03:02:36.901Z,0
2016-10-08T03:03:36.927Z,0
2016-10-08T03:04:36.940Z,0
2016-10-08T03:05:36.955Z,0
2016-10-08T03:06:36.981Z,0
2016-10-08T03:07:36.999Z,0
2016-10-08T03:08:37.024Z,0
2016-10-08T03:09:37.080Z,0
2016-10-08T03:10:37.046Z,0
2016-10-08T03:11:37.064Z,0
2016-10-08T03:12:37.080Z,0
2016-10-08T03:13:37.092Z,0
2016-10-08T03:14:37.116Z,0
2016-10-08T03:15:37.137Z,0
2016-10-08T03:16:37.215Z,0
2016-10-08T03:17:37.173Z,0
2016-10-08T03:18:37.186Z,0
2016-10-08T03:19:37.197Z,0
2016-10-08T03:20:37.226Z,0
2016-10-08T03:21:37.364Z,0
2016-10-08T03:22:37.375Z,0
2016-10-08T03:23:37.361Z,0
2016-10-08T03:24:37.526Z,0
2016-10-08T03:25:37.391Z,0
2016-10-08T03:26:37.418Z,0
2016-10-08T03:27:37.560Z,0
2016-10-08T03:28:37.590Z,0
2016-10-08T03:29:37.786Z,0
2016-10-08T03:30:37.961Z,0
2016-10-08T03:31:37.512Z,0
2016-10-08T03:32:37.522Z,0
2016-10-08T03:33:37.528Z,0
2016-10-08T03:34:37.980Z,0
2016-10-08T03:35:37.744Z,0
2016-10-08T03:36:37.684Z,0
2016-10-08T03:37:37.700Z,0
2016-10-08T03:38:37.865Z,0
2016-10-08T03:39:37.915Z,0
2016-10-08T03:40:37.833Z,0
2016-10-08T03:41:37.719Z,0
2016-10-08T03:42:37.704Z,0
2016-10-08T03:43:37.702Z,0
2016-10-08T03:44:37.720Z,0
2016-10-08T03:45:37.721Z,0
2016-10-08T03:46:38.097Z,0
2016-10-08T03:47:37.740Z,0
2016-10-08T03:48:37.732Z,0
2016-10-08T03:49:38.040Z,0
2016-10-08T03:50:37.748Z,0
2016-10-08T03:51:38.098Z,0
2016-10-08T03:52:37.787Z,0
2016-10-08T03:53:37.801Z,0
2016-10-08T03:54:37.821Z,0
2016-10-08T03:55:38.164Z,0
2016-10-08T03:56:37.857Z,0
2016-10-08T03:57:37.868Z,0
2016-10-08T03:58:37.896Z,0
2016-10-08T03:59:38.217Z,0
2016-10-08T04:00:37.924Z,0
2016-10-08T04:01:37.941Z,0
2016-10-08T04:02:37.957Z,0
2016-10-08T04:03:37.978Z,0
2016-10-08T04:04:37.997Z,0
2016-10-08T04:05:38.033Z,0
2016-10-08T04:06:38.041Z,0
2016-10-08T04:07:38.043Z,0
2016-10-08T04:08:38.060Z,0
2016-10-08T04:09:38.084Z,0
2016-10-08T04:10:38.417Z,0
2016-10-08T04:11:38.117Z,0
2016-10-08T04:12:38.139Z,0
2016-10-08T04:13:38.145Z,0
2016-10-08T04:14:38.171Z,0
2016-10-08T04:15:38.187Z,0
2016-10-08T04:16:38.204Z,0
2016-10-08T04:17:38.217Z,0
2016-10-08T04:18:38.245Z,0
2016-10-08T04:19:38.618Z,0
2016-10-08T04:20:38.313Z,0
2016-10-08T04:21:38.308Z,0
2016-10-08T04:22:38.305Z,0
2016-10-08T04:23:38.324Z,0
2016-10-08T04:24:38.343Z,0
2016-10-08T04:25:38.358Z,0
2016-10-08T04:26:38.383Z,0
2016-10-08T04:27:38.391Z,0
2016-10-08T04:28:38.416Z,0
2016-10-08T04:29:38.426Z,0
2016-10-08T04:30:38.445Z,0
2016-10-08T04:31:38.518Z,0
2016-10-08T04:32:38.794Z,0
2016-10-08T04:33:38.506Z,0
2016-10-08T04:34:38.583Z,0
2016-10-08T04:35:38.527Z,0
2016-10-08T04:36:38.560Z,0
2016-10-08T04:37:38.565Z,0
2016-10-08T04:38:38.590Z,0
2016-10-08T04:39:38.603Z,0
2016-10-08T04:40:39.255Z,0
2016-10-08T04:41:38.638Z,0
2016-10-08T04:42:38.653Z,0
2016-10-08T04:43:38.675Z,0
2016-10-08T04:44:38.692Z,0
2016-10-08T04:45:38.705Z,0
2016-10-08T04:46:39.042Z,0
2016-10-08T04:47:38.748Z,0
2016-10-08T04:48:38.762Z,0
2016-10-08T04:49:38.776Z,0
2016-10-08T04:50:38.794Z,0
2016-10-08T04:51:38.809Z,0
2016-10-08T04:52:38.832Z,0
2016-10-08T04:53:38.854Z,0
2016-10-08T04:54:38.865Z,0
2016-10-08T04:55:39.209Z,0
2016-10-08T04:56:38.896Z,0
2016-10-08T04:57:38.916Z,0
2016-10-08T04:58:38.936Z,0
2016-10-08T04:59:38.950Z,0
2016-10-08T05:00:38.982Z,0
2016-10-08T05:01:38.989Z,0
2016-10-08T05:02:39.003Z,0
2016-10-08T05:03:39.018Z,0
2016-10-08T05:04:39.035Z,0
2016-10-08T05:05:39.054Z,0
2016-10-08T05:06:39.086Z,0
2016-10-08T05:07:39.128Z,0
2016-10-08T05:08:39.116Z,0
2016-10-08T05:09:39.137Z,0
2016-10-08T05:10:39.162Z,0
2016-10-08T05:11:39.165Z,0
2016-10-08T05:12:39.177Z,0
2016-10-08T05:13:39.683Z,0
2016-10-08T05:14:39.214Z,0
2016-10-08T05:15:39.362Z,0
2016-10-08T05:16:39.358Z,0
2016-10-08T05:17:39.385Z,0
2016-10-08T05:18:39.368Z,0
2016-10-08T05:19:39.385Z,0
2016-10-08T05:20:39.405Z,0
2016-10-08T05:21:39.453Z,0
2016-10-08T05:22:39.439Z,0
2016-10-08T05:23:39.515Z,0
2016-10-08T05:24:39.515Z,0
2016-10-08T05:25:39.521Z,0
2016-10-08T05:26:39.532Z,0
2016-10-08T05:27:39.543Z,0
2016-10-08T05:28:39.679Z,0
2016-10-08T05:29:39.679Z,0
2016-10-08T05:30:39.690Z,0
2016-10-08T05:31:39.715Z,0
2016-10-08T05:32:39.706Z,0
2016-10-08T05:33:39.720Z,0
2016-10-08T05:34:39.742Z,0
2016-10-08T05:35:39.726Z,0
2016-10-08T05:36:39.685Z,0
2016-10-08T05:37:39.687Z,0
2016-10-08T05:38:39.704Z,0
2016-10-08T05:39:39.720Z,0
2016-10-08T05:40:39.732Z,0
2016-10-08T05:41:39.740Z,0
2016-10-08T05:42:39.746Z,0
2016-10-08T05:43:39.757Z,0
2016-10-08T05:44:39.755Z,0
2016-10-08T05:45:39.767Z,0
2016-10-08T05:46:39.775Z,0
2016-10-08T05:47:39.784Z,0
2016-10-08T05:48:39.805Z,0
2016-10-08T05:49:39.819Z,0
2016-10-08T05:50:39.846Z,0
2016-10-08T05:51:39.867Z,0
2016-10-08T05:52:39.874Z,0
2016-10-08T05:53:39.893Z,0
2016-10-08T05:54:39.903Z,0
2016-10-08T05:55:39.928Z,0
2016-10-08T05:56:39.939Z,0
2016-10-08T05:57:39.959Z,0
2016-10-08T05:58:39.970Z,0
2016-10-08T05:59:40.003Z,0
2016-10-08T06:00:40.008Z,0
2016-10-08T06:01:40.034Z,0
2016-10-08T06:02:40.045Z,0
2016-10-08T06:03:40.070Z,0
2016-10-08T06:04:40.099Z,0
2016-10-08T06:05:40.099Z,0
2016-10-08T06:06:40.119Z,0
2016-10-08T06:07:40.134Z,0
2016-10-08T06:08:40.166Z,0
2016-10-08T06:09:40.180Z,0
2016-10-08T06:10:40.200Z,0
2016-10-08T06:11:40.532Z,0
2016-10-08T06:12:40.233Z,0
2016-10-08T06:13:40.244Z,0
2016-10-08T06:14:40.265Z,0
2016-10-08T06:15:40.278Z,0
2016-10-08T06:16:40.296Z,0
2016-10-08T06:17:40.311Z,0
2016-10-08T06:18:40.331Z,0
2016-10-08T06:19:40.662Z,0
2016-10-08T06:20:40.362Z,0
2016-10-08T06:21:40.404Z,5
2016-10-08T06:22:40.397Z,5
2016-10-08T06:23:40.527Z,5
2016-10-08T06:24:40.786Z,0
2016-10-08T06:25:40.462Z,5
2016-10-08T06:26:40.461Z,0
2016-10-08T06:27:40.483Z,5
2016-10-08T06:28:40.497Z,5
2016-10-08T06:29:40.541Z,0
2016-10-08T06:30:40.547Z,0
2016-10-08T06:31:40.580Z,0
2016-10-08T06:32:40.569Z,0
2016-10-08T06:33:40.592Z,0
2016-10-08T06:34:40.600Z,0
2016-10-08T06:35:40.617Z,0
2016-10-08T06:36:40.647Z,0
2016-10-08T06:37:40.651Z,0
2016-10-08T06:38:40.681Z,0
2016-10-08T06:39:40.685Z,0
2016-10-08T06:40:40.710Z,0
2016-10-08T06:41:40.718Z,5
2016-10-08T06:42:40.754Z,5
2016-10-08T06:43:40.754Z,5
2016-10-08T06:44:40.782Z,5
2016-10-08T06:45:40.794Z,5
2016-10-08T06:46:40.809Z,5
2016-10-08T06:47:40.829Z,5
2016-10-08T06:48:40.842Z,5
2016-10-08T06:49:40.861Z,5
2016-10-08T06:50:40.879Z,5
2016-10-08T06:51:40.918Z,5
2016-10-08T06:52:40.913Z,5
2016-10-08T06:53:40.981Z,5
2016-10-08T06:54:40.964Z,5
2016-10-08T06:55:40.963Z,5
2016-10-08T06:56:40.995Z,5
2016-10-08T06:57:41.005Z,5
2016-10-08T06:58:41.010Z,5
2016-10-08T06:59:41.040Z,10
2016-10-08T07:00:41.045Z,5
2016-10-08T07:01:41.072Z,5
2016-10-08T07:02:41.081Z,5
2016-10-08T07:03:41.104Z,5
2016-10-08T07:04:41.122Z,5
2016-10-08T07:05:41.151Z,5
2016-10-08T07:06:41.161Z,5
2016-10-08T07:07:41.385Z,10
2016-10-08T07:08:41.394Z,10
2016-10-08T07:09:41.224Z,10
2016-10-08T07:10:41.237Z,10
2016-10-08T07:11:41.239Z,5
2016-10-08T07:12:41.261Z,5
2016-10-08T07:13:41.279Z,5
2016-10-08T07:14:41.312Z,5
2016-10-08T07:15:41.309Z,10
2016-10-08T07:16:41.331Z,10
2016-10-08T07:17:41.346Z,10
2016-10-08T07:18:41.361Z,5
2016-10-08T07:19:41.383Z,5
2016-10-08T07:20:41.401Z,5
2016-10-08T07:21:41.417Z,5
2016-10-08T07:22:41.433Z,5
2016-10-08T07:23:41.450Z,5
2016-10-08T07:24:41.467Z,5
2016-10-08T07:25:41.491Z,5
2016-10-08T07:26:41.501Z,5
2016-10-08T07:27:41.519Z,5
2016-10-08T07:28:41.538Z,5
2016-10-08T07:29:41.555Z,5
2016-10-08T07:30:41.572Z,10
2016-10-08T07:31:41.588Z,10
2016-10-08T07:32:41.606Z,10
2016-10-08T07:33:41.629Z,5
2016-10-08T07:34:41.642Z,5
2016-10-08T07:35:41.656Z,5
2016-10-08T07:36:41.690Z,5
2016-10-08T07:37:41.696Z,5
2016-10-08T07:38:41.709Z,5
2016-10-08T07:39:41.731Z,10
2016-10-08T07:40:41.745Z,5
2016-10-08T07:41:41.765Z,10
2016-10-08T07:42:41.784Z,10
2016-10-08T07:43:41.822Z,10
2016-10-08T07:44:41.815Z,10
2016-10-08T07:45:41.830Z,10
2016-10-08T07:46:41.861Z,10
2016-10-08T07:47:41.865Z,10
2016-10-08T07:48:41.883Z,10
2016-10-08T07:49:41.901Z,10
2016-10-08T07:50:41.914Z,10
2016-10-08T07:51:41.939Z,10
2016-10-08T07:52:41.950Z,10
2016-10-08T07:53:41.968Z,10
2016-10-08T07:54:41.985Z,10
2016-10-08T07:55:42.007Z,5
2016-10-08T07:56:42.021Z,5
2016-10-08T07:57:42.045Z,5
2016-10-08T07:58:42.141Z,10
2016-10-08T07:59:42.111Z,10
2016-10-08T08:00:42.148Z,10
2016-10-08T08:01:42.156Z,10
2016-10-08T08:02:42.164Z,10
2016-10-08T08:03:42.173Z,10
2016-10-08T08:04:42.182Z,10
2016-10-08T08:05:42.181Z,10
2016-10-08T08:06:42.196Z,10
2016-10-08T08:07:42.216Z,10
2016-10-08T08:08:42.235Z,10
2016-10-08T08:09:42.255Z,10
2016-10-08T08:10:42.272Z,10
2016-10-08T08:11:42.292Z,10
2016-10-08T08:12:42.309Z,15
2016-10-08T08:13:42.318Z,15
2016-10-08T08:14:42.339Z,15
2016-10-08T08:15:42.353Z,15
2016-10-08T08:16:42.381Z,15
2016-10-08T08:17:42.392Z,15
2016-10-08T08:18:42.408Z,15
2016-10-08T08:19:42.426Z,10
2016-10-08T08:20:42.444Z,5
2016-10-08T08:21:42.462Z,5
2016-10-08T08:22:42.472Z,5
2016-10-08T08:23:42.498Z,5
2016-10-08T08:24:42.518Z,5
2016-10-08T08:25:42.529Z,5
2016-10-08T08:26:42.554Z,5
2016-10-08T08:27:42.567Z,10
2016-10-08T08:28:42.585Z,5
2016-10-08T08:29:42.804Z,10
2016-10-08T08:30:42.618Z,15
2016-10-08T08:31:42.639Z,10
2016-10-08T08:32:42.651Z,10
2016-10-08T08:33:42.671Z,10
2016-10-08T08:34:42.693Z,10
2016-10-08T08:35:42.712Z,10
2016-10-08T08:36:42.728Z,10
2016-10-08T08:37:42.746Z,15
2016-10-08T08:38:42.762Z,10
2016-10-08T08:39:42.778Z,10
2016-10-08T08:40:42.797Z,10
2016-10-08T08:41:42.811Z,10
2016-10-08T08:42:42.835Z,10
2016-10-08T08:43:42.850Z,10
2016-10-08T08:44:42.865Z,10
2016-10-08T08:45:43.206Z,5
2016-10-08T08:46:42.901Z,10
2016-10-08T08:47:42.941Z,10
2016-10-08T08:48:42.951Z,10
2016-10-08T08:49:42.952Z,10
2016-10-08T08:50:43.072Z,10
2016-10-08T08:51:43.080Z,10
2016-10-08T08:52:43.089Z,10
2016-10-08T08:53:43.098Z,10
2016-10-08T08:54:43.124Z,10
2016-10-08T08:55:43.131Z,10
2016-10-08T08:56:43.085Z,10
2016-10-08T08:57:43.103Z,10
2016-10-08T08:58:43.113Z,10
2016-10-08T08:59:43.129Z,10
2016-10-08T09:00:43.151Z,10
2016-10-08T09:01:43.227Z,15
2016-10-08T09:02:43.195Z,15
2016-10-08T09:03:43.199Z,15
2016-10-08T09:04:43.221Z,20
2016-10-08T09:05:43.233Z,30
2016-10-08T09:06:43.904Z,25
2016-10-08T09:07:43.275Z,25
2016-10-08T09:08:43.297Z,20
2016-10-08T09:09:43.315Z,20
2016-10-08T09:10:43.326Z,25
2016-10-08T09:11:43.346Z,30
2016-10-08T09:12:43.366Z,30
2016-10-08T09:13:43.379Z,30
2016-10-08T09:14:43.399Z,25
2016-10-08T09:15:43.413Z,25
2016-10-08T09:16:43.445Z,20
2016-10-08T09:17:43.455Z,25
2016-10-08T09:18:43.462Z,25
2016-10-08T09:19:43.489Z,30
2016-10-08T09:20:43.510Z,30
2016-10-08T09:21:43.524Z,30
2016-10-08T09:22:43.549Z,30
2016-10-08T09:23:43.569Z,30
2016-10-08T09:24:43.585Z,25
2016-10-08T09:25:43.598Z,20
2016-10-08T09:26:43.616Z,20
2016-10-08T09:27:43.635Z,25
2016-10-08T09:28:43.656Z,25
2016-10-08T09:29:43.670Z,25
2016-10-08T09:30:43.692Z,25
2016-10-08T09:31:43.708Z,25
2016-10-08T09:32:43.730Z,25
2016-10-08T09:33:43.758Z,30
2016-10-08T09:34:43.775Z,30
2016-10-08T09:35:43.774Z,30
2016-10-08T09:36:43.797Z,30
2016-10-08T09:37:43.818Z,20
2016-10-08T09:38:43.854Z,20
2016-10-08T09:39:43.857Z,20
2016-10-08T09:40:43.869Z,20
2016-10-08T09:41:43.890Z,25
2016-10-08T09:42:43.907Z,30
2016-10-08T09:43:43.927Z,30
2016-10-08T09:44:43.944Z,35
2016-10-08T09:45:43.963Z,40
2016-10-08T09:46:43.978Z,35
2016-10-08T09:47:44.012Z,40
2016-10-08T09:48:44.030Z,40
2016-10-08T09:49:44.040Z,40
2016-10-08T09:50:44.054Z,55
2016-10-08T09:51:44.082Z,40
2016-10-08T09:52:44.095Z,35
2016-10-08T09:53:44.118Z,50
2016-10-08T09:54:44.131Z,40
2016-10-08T09:55:44.148Z,40
2016-10-08T09:56:44.164Z,40
2016-10-08T09:57:44.506Z,30
2016-10-08T09:58:44.209Z,35
2016-10-08T09:59:44.232Z,40
2016-10-08T10:00:44.244Z,40
2016-10-08T10:01:44.260Z,35
2016-10-08T10:02:44.278Z,50
2016-10-08T10:03:44.297Z,40
2016-10-08T10:04:44.339Z,30
2016-10-08T10:05:44.340Z,20
2016-10-08T10:06:44.353Z,40
2016-10-08T10:07:44.377Z,40
2016-10-08T10:08:44.396Z,35
2016-10-08T10:09:44.417Z,35
2016-10-08T10:10:44.978Z,30
2016-10-08T10:11:44.468Z,30
2016-10-08T10:12:44.474Z,20
2016-10-08T10:13:44.491Z,20
2016-10-08T10:14:44.510Z,15
2016-10-08T10:15:44.550Z,25
2016-10-08T10:16:44.545Z,40
2016-10-08T10:17:44.565Z,35
2016-10-08T10:18:44.600Z,30
2016-10-08T10:19:44.623Z,30
2016-10-08T10:20:44.627Z,40
2016-10-08T10:21:44.658Z,40
2016-10-08T10:22:44.662Z,40
2016-10-08T10:23:44.786Z,35
2016-10-08T10:24:44.715Z,25
2016-10-08T10:25:44.724Z,20
2016-10-08T10:26:44.740Z,25
2016-10-08T10:27:44.762Z,25
2016-10-08T10:28:44.777Z,20
2016-10-08T10:29:44.795Z,40
2016-10-08T10:30:44.827Z,30
2016-10-08T10:31:44.828Z,25
2016-10-08T10:32:44.851Z,25
2016-10-08T10:33:44.869Z,25
2016-10-08T10:34:44.897Z,20
2016-10-08T10:35:45.022Z,20
2016-10-08T10:36:44.934Z,20
2016-10-08T10:37:44.952Z,20
2016-10-08T10:38:44.970Z,15
2016-10-08T10:39:44.989Z,15
2016-10-08T10:40:45.023Z,20
2016-10-08T10:41:45.025Z,25
2016-10-08T10:42:45.055Z,40
2016-10-08T10:43:45.066Z,45
2016-10-08T10:44:45.080Z,45
2016-10-08T10:45:45.428Z,35
2016-10-08T10:46:45.118Z,20
2016-10-08T10:47:45.145Z,15
2016-10-08T10:48:45.161Z,20
2016-10-08T10:49:45.187Z,30
2016-10-08T10:50:45.632Z,35
2016-10-08T10:51:45.511Z,35
2016-10-08T10:52:45.364Z,45
2016-10-08T10:53:45.418Z,40
2016-10-08T10:54:45.415Z,30
2016-10-08T10:55:45.436Z,35
2016-10-08T10:56:45.514Z,35
2016-10-08T10:57:45.440Z,40
2016-10-08T10:58:45.449Z,35
2016-10-08T10:59:45.451Z,30
2016-10-08T11:00:45.400Z,25
2016-10-08T11:01:45.420Z,30
2016-10-08T11:02:45.443Z,30
2016-10-08T11:03:45.456Z,25
2016-10-08T11:04:45.473Z,25
2016-10-08T11:05:45.493Z,30
2016-10-08T11:06:45.833Z,35
2016-10-08T11:07:45.535Z,25
2016-10-08T11:08:45.553Z,20
2016-10-08T11:09:45.594Z,30
2016-10-08T11:10:45.595Z,25
2016-10-08T11:11:45.613Z,25
2016-10-08T11:12:45.635Z,25
2016-10-08T11:13:45.650Z,25
2016-10-08T11:14:45.674Z,20
2016-10-08T11:15:45.697Z,15
2016-10-08T11:16:45.714Z,15
2016-10-08T11:17:45.733Z,10
2016-10-08T11:18:45.748Z,10
2016-10-08T11:19:45.775Z,10
2016-10-08T11:20:45.791Z,10
2016-10-08T11:21:45.817Z,10
2016-10-08T11:22:45.825Z,15
2016-10-08T11:23:45.852Z,20
2016-10-08T11:24:45.868Z,20
2016-10-08T11:25:45.888Z,15
2016-10-08T11:26:45.906Z,15
2016-10-08T11:27:45.934Z,10
2016-10-08T11:28:45.943Z,10
2016-10-08T11:29:45.968Z,10
2016-10-08T11:30:45.983Z,10
2016-10-08T11:31:46.008Z,10
2016-10-08T11:32:46.029Z,10
2016-10-08T11:33:46.044Z,10
2016-10-08T11:34:46.067Z,10
2016-10-08T11:35:46.211Z,10
2016-10-08T11:36:46.219Z,5
2016-10-08T11:37:46.126Z,5
2016-10-08T11:38:46.144Z,10
2016-10-08T11:39:46.165Z,15
2016-10-08T11:40:46.182Z,20
2016-10-08T11:41:46.201Z,25
2016-10-08T11:42:46.222Z,25
2016-10-08T11:43:46.246Z,30
2016-10-08T11:44:46.273Z,25
2016-10-08T11:45:46.282Z,25
2016-10-08T11:46:46.309Z,20
2016-10-08T11:47:46.318Z,15
2016-10-08T11:48:46.343Z,15
2016-10-08T11:49:46.361Z,15
2016-10-08T11:50:46.385Z,15
2016-10-08T11:51:46.400Z,20
2016-10-08T11:52:46.428Z,15
2016-10-08T11:53:46.446Z,20
2016-10-08T11:54:46.476Z,20
2016-10-08T11:55:46.495Z,20
2016-10-08T11:56:46.503Z,20
2016-10-08T11:57:46.524Z,25
2016-10-08T11:58:46.537Z,30
2016-10-08T11:59:46.562Z,30
2016-10-08T12:00:46.579Z,25
2016-10-08T12:01:46.609Z,15
2016-10-08T12:02:46.618Z,15
2016-10-08T12:03:46.656Z,30
2016-10-08T12:04:46.657Z,35
2016-10-08T12:05:46.679Z,40
2016-10-08T12:06:46.695Z,45
2016-10-08T12:07:46.715Z,45
2016-10-08T12:08:46.737Z,45
2016-10-08T12:09:46.869Z,45
2016-10-08T12:10:46.877Z,45
2016-10-08T12:11:46.912Z,45
2016-10-08T12:12:47.043Z,45
2016-10-08T12:13:47.049Z,40
2016-10-08T12:14:47.065Z,40
2016-10-08T12:15:47.062Z,35
2016-10-08T12:16:47.079Z,30
2016-10-08T12:17:47.083Z,20
2016-10-08T12:18:47.091Z,10
2016-10-08T12:19:47.100Z,10
2016-10-08T12:20:47.108Z,5
2016-10-08T12:21:47.110Z,5
2016-10-08T12:22:47.163Z,5
2016-10-08T12:23:47.162Z,10
2016-10-08T12:24:47.172Z,15
2016-10-08T12:25:47.170Z,15
2016-10-08T12:26:47.182Z,15
2016-10-08T12:27:47.188Z,15
2016-10-08T12:28:47.198Z,15
2016-10-08T12:29:47.246Z,10
2016-10-08T12:30:47.251Z,10
2016-10-08T12:31:47.284Z,5
2016-10-08T12:32:47.299Z,5
2016-10-08T12:33:47.557Z,5
2016-10-08T12:34:47.310Z,10
2016-10-08T12:35:47.275Z,15
2016-10-08T12:36:47.294Z,15
2016-10-08T12:37:47.316Z,25
2016-10-08T12:38:47.334Z,30
2016-10-08T12:39:47.362Z,35
2016-10-08T12:40:47.377Z,35
2016-10-08T12:41:47.393Z,35
2016-10-08T12:42:47.414Z,35
2016-10-08T12:43:47.437Z,35
2016-10-08T12:44:47.453Z,30
2016-10-08T12:45:47.482Z,30
2016-10-08T12:46:47.540Z,25
2016-10-08T12:47:47.520Z,25
2016-10-08T12:48:47.531Z,25
2016-10-08T12:49:47.559Z,20
2016-10-08T12:50:47.569Z,25
2016-10-08T12:51:47.596Z,20
2016-10-08T12:52:47.617Z,25
2016-10-08T12:53:47.650Z,30
2016-10-08T12:54:47.655Z,35
2016-10-08T12:55:47.675Z,35
2016-10-08T12:56:47.746Z,30
2016-10-08T12:57:47.716Z,35
2016-10-08T12:58:47.742Z,35
2016-10-08T12:59:47.766Z,30
2016-10-08T13:00:47.775Z,25
2016-10-08T13:01:47.850Z,25
2016-10-08T13:02:47.811Z,25
2016-10-08T13:03:47.841Z,25
2016-10-08T13:04:47.854Z,25
2016-10-08T13:05:47.875Z,25
2016-10-08T13:06:47.950Z,20
2016-10-08T13:07:47.918Z,20
2016-10-08T13:08:47.938Z,20
2016-10-08T13:09:47.958Z,20
2016-10-08T13:10:47.988Z,20
2016-10-08T13:11:47.997Z,25
2016-10-08T13:12:48.020Z,25
2016-10-08T13:13:48.040Z,25
2016-10-08T13:14:48.058Z,25
2016-10-08T13:15:48.095Z,25
2016-10-08T13:16:48.099Z,20
2016-10-08T13:17:48.118Z,20
2016-10-08T13:18:48.139Z,20
2016-10-08T13:19:48.156Z,20
2016-10-08T13:20:48.178Z,25
2016-10-08T13:21:48.200Z,25
2016-10-08T13:22:48.220Z,30
2016-10-08T13:23:48.245Z,30
2016-10-08T13:24:48.267Z,25
2016-10-08T13:25:48.282Z,25
2016-10-08T13:26:48.307Z,25
2016-10-08T13:27:48.321Z,30
2016-10-08T13:28:48.341Z,30
2016-10-08T13:29:48.360Z,30
2016-10-08T13:30:48.379Z,30
2016-10-08T13:31:48.401Z,30
2016-10-08T13:32:48.419Z,30
2016-10-08T13:33:48.439Z,30
2016-10-08T13:34:48.454Z,30
2016-10-08T13:35:48.481Z,25
2016-10-08T13:36:48.500Z,25
2016-10-08T13:37:48.524Z,20
2016-10-08T13:38:48.543Z,20
2016-10-08T13:39:48.564Z,25
2016-10-08T13:40:48.584Z,25
2016-10-08T13:41:48.603Z,25
2016-10-08T13:42:48.635Z,25
2016-10-08T13:43:48.650Z,25
2016-10-08T13:44:48.675Z,25
2016-10-08T13:45:48.685Z,30
2016-10-08T13:46:48.702Z,30
2016-10-08T13:47:48.726Z,30
2016-10-08T13:48:48.755Z,30
2016-10-08T13:49:48.769Z,30
2016-10-08T13:50:48.896Z,35
2016-10-08T13:51:48.985Z,35
2016-10-08T13:52:49.059Z,35
2016-10-08T13:53:49.069Z,30
2016-10-08T13:54:49.074Z,30
2016-10-08T13:55:49.084Z,30
2016-10-08T13:56:49.094Z,25
2016-10-08T13:57:49.106Z,25
2016-10-08T13:58:49.108Z,30
2016-10-08T13:59:49.118Z,30
2016-10-08T14:00:49.120Z,25
2016-10-08T14:01:49.270Z,25
2016-10-08T14:02:49.132Z,25
2016-10-08T14:03:49.186Z,25
2016-10-08T14:04:49.184Z,25
2016-10-08T14:05:49.196Z,20
2016-10-08T14:06:49.408Z,20
2016-10-08T14:07:49.205Z,20
2016-10-08T14:08:49.216Z,20
2016-10-08T14:09:49.254Z,25
2016-10-08T14:10:49.270Z,25
2016-10-08T14:11:49.300Z,25
2016-10-08T14:12:49.314Z,20
2016-10-08T14:13:49.321Z,15
2016-10-08T14:14:49.317Z,15
2016-10-08T14:15:49.324Z,15
2016-10-08T14:16:49.320Z,15
2016-10-08T14:17:49.341Z,15
2016-10-08T14:18:49.354Z,10
2016-10-08T14:19:49.421Z,10
2016-10-08T14:20:49.711Z,10
2016-10-08T14:21:49.419Z,10
2016-10-08T14:22:49.439Z,10
2016-10-08T14:23:49.461Z,10
2016-10-08T14:24:49.478Z,10
2016-10-08T14:25:49.523Z,10
2016-10-08T14:26:49.524Z,5
2016-10-08T14:27:49.548Z,5
2016-10-08T14:28:49.563Z,5
2016-10-08T14:29:49.582Z,10
2016-10-08T14:30:49.602Z,15
2016-10-08T14:31:49.624Z,10
2016-10-08T14:32:49.642Z,5